createdAt,value
2023-09-20T00:00:21.000Z,287.96
2023-09-20T00:01:47.000Z,287.9
2023-09-20T00:03:54.000Z,287.96
2023-09-20T00:05:20.000Z,287.96
2023-09-20T00:07:27.000Z,287.84
2023-09-20T00:08:53.000Z,287.77
2023-09-20T00:10:59.000Z,287.9
2023-09-20T00:12:26.000Z,287.96
2023-09-20T00:14:32.000Z,287.9
2023-09-20T00:17:17.000Z,287.84
2023-09-20T00:18:44.000Z,287.84
2023-09-20T00:20:50.000Z,287.96
2023-09-20T00:22:17.000Z,287.9
2023-09-20T00:24:23.000Z,287.84
2023-09-20T00:25:49.000Z,287.77
2023-09-20T00:27:56.000Z,287.9
2023-09-20T00:29:22.000Z,287.9
2023-09-20T00:31:29.000Z,287.84
2023-09-20T00:32:55.000Z,287.84
2023-09-20T00:35:02.000Z,287.9
2023-09-20T00:36:28.000Z,287.77
2023-09-20T00:38:34.000Z,287.71
2023-09-20T00:40:01.000Z,287.71
2023-09-20T00:42:07.000Z,287.84
2023-09-20T00:43:34.000Z,287.9
2023-09-20T00:45:40.000Z,287.9
2023-09-20T00:47:06.000Z,287.84
2023-09-20T00:49:14.000Z,287.84
2023-09-20T00:50:40.000Z,287.84
2023-09-20T00:52:46.000Z,287.9
2023-09-20T00:55:32.000Z,287.9
2023-09-20T00:56:58.000Z,287.9
2023-09-20T00:59:05.000Z,287.77
2023-09-20T01:00:31.000Z,287.77
2023-09-20T01:02:38.000Z,287.77
2023-09-20T01:04:04.000Z,287.84
2023-09-20T01:06:11.000Z,287.9
2023-09-20T01:07:37.000Z,287.84
2023-09-20T01:09:44.000Z,287.77
2023-09-20T01:11:10.000Z,287.77
2023-09-20T01:13:16.000Z,287.77
2023-09-20T01:14:43.000Z,287.77
2023-09-20T01:16:49.000Z,287.71
2023-09-20T01:18:16.000Z,287.77
2023-09-20T01:20:22.000Z,287.77
2023-09-20T01:21:49.000Z,287.84
2023-09-20T01:23:55.000Z,287.9
2023-09-20T01:25:22.000Z,287.9
2023-09-20T01:27:28.000Z,287.9
2023-09-20T01:28:54.000Z,287.9
2023-09-20T01:31:00.000Z,287.96
2023-09-20T01:33:46.000Z,287.96
2023-09-20T01:35:12.000Z,288.02
2023-09-20T01:37:18.000Z,287.96
2023-09-20T01:38:45.000Z,287.96
2023-09-20T01:40:51.000Z,287.96
2023-09-20T01:42:18.000Z,287.96
2023-09-20T01:44:24.000Z,287.9
2023-09-20T01:45:51.000Z,287.84
2023-09-20T01:47:57.000Z,287.71
2023-09-20T01:49:24.000Z,287.71
2023-09-20T01:51:30.000Z,287.65
2023-09-20T01:52:57.000Z,287.65
2023-09-20T01:55:03.000Z,287.52
2023-09-20T01:56:30.000Z,287.59
2023-09-20T01:58:36.000Z,287.59
2023-09-20T02:00:03.000Z,287.52
2023-09-20T02:02:09.000Z,287.46
2023-09-20T02:03:36.000Z,287.46
2023-09-20T02:05:42.000Z,287.46
2023-09-20T02:07:09.000Z,287.52
2023-09-20T02:09:15.000Z,287.4
2023-09-20T02:12:00.000Z,287.34
2023-09-20T02:13:26.000Z,287.34
2023-09-20T02:15:32.000Z,287.27
2023-09-20T02:16:59.000Z,287.27
2023-09-20T02:19:05.000Z,287.34
2023-09-20T02:20:32.000Z,287.34
2023-09-20T02:22:38.000Z,287.27
2023-09-20T02:24:04.000Z,287.27
2023-09-20T02:26:11.000Z,287.15
2023-09-20T02:27:37.000Z,287.15
2023-09-20T02:29:43.000Z,287.15
2023-09-20T02:31:10.000Z,287.15
2023-09-20T02:33:16.000Z,287.15
2023-09-20T02:34:43.000Z,287.09
2023-09-20T02:36:49.000Z,287.09
2023-09-20T02:38:16.000Z,287.09
2023-09-20T02:40:22.000Z,287.02
2023-09-20T02:41:49.000Z,287.02
2023-09-20T02:43:55.000Z,287.02
2023-09-20T02:45:22.000Z,287.02
2023-09-20T02:47:28.000Z,287.09
2023-09-20T02:50:13.000Z,287.02
2023-09-20T02:51:40.000Z,287.02
2023-09-20T02:53:47.000Z,287.09
2023-09-20T02:55:13.000Z,287.15
2023-09-20T02:57:19.000Z,287.15
2023-09-20T02:58:46.000Z,287.21
2023-09-20T03:00:52.000Z,287.34
2023-09-20T03:02:18.000Z,287.34
2023-09-20T03:04:25.000Z,287.4
2023-09-20T03:05:51.000Z,287.34
2023-09-20T03:07:57.000Z,287.34
2023-09-20T03:09:24.000Z,287.34
2023-09-20T03:11:30.000Z,287.34
2023-09-20T03:12:57.000Z,287.34
2023-09-20T03:15:03.000Z,287.27
2023-09-20T03:16:30.000Z,287.27
2023-09-20T03:18:36.000Z,287.21
2023-09-20T03:20:03.000Z,287.15
2023-09-20T03:22:09.000Z,287.15
2023-09-20T03:23:36.000Z,287.15
2023-09-20T03:25:42.000Z,287.15
2023-09-20T03:28:27.000Z,287.02
2023-09-20T03:29:54.000Z,287.02
2023-09-20T03:32:00.000Z,287.02
2023-09-20T03:33:27.000Z,287.09
2023-09-20T03:35:33.000Z,287.02
2023-09-20T03:37:00.000Z,287.02
2023-09-20T03:39:06.000Z,287.09
2023-09-20T03:40:33.000Z,287.09
2023-09-20T03:42:39.000Z,287.09
2023-09-20T03:44:06.000Z,287.02
2023-09-20T03:46:12.000Z,286.96
2023-09-20T03:47:39.000Z,286.9
2023-09-20T03:49:45.000Z,286.84
2023-09-20T03:51:12.000Z,286.84
2023-09-20T03:53:18.000Z,286.77
2023-09-20T03:54:45.000Z,286.77
2023-09-20T03:56:51.000Z,286.84
2023-09-20T03:58:17.000Z,286.77
2023-09-20T04:00:24.000Z,286.71
2023-09-20T04:01:50.000Z,286.71
2023-09-20T04:03:57.000Z,286.65
2023-09-20T04:06:42.000Z,286.59
2023-09-20T04:08:09.000Z,286.59
2023-09-20T04:10:15.000Z,286.59
2023-09-20T04:11:42.000Z,286.65
2023-09-20T04:13:48.000Z,286.65
2023-09-20T04:15:15.000Z,286.59
2023-09-20T04:17:21.000Z,286.46
2023-09-20T04:18:48.000Z,286.46
2023-09-20T04:20:54.000Z,286.46
2023-09-20T04:22:20.000Z,286.46
2023-09-20T04:24:26.000Z,286.34
2023-09-20T04:25:53.000Z,286.34
2023-09-20T04:27:59.000Z,286.34
2023-09-20T04:29:26.000Z,286.27
2023-09-20T04:31:32.000Z,286.21
2023-09-20T04:32:58.000Z,286.21
2023-09-20T04:35:05.000Z,286.21
2023-09-20T04:36:32.000Z,286.27
2023-09-20T04:38:38.000Z,286.34
2023-09-20T04:40:05.000Z,286.34
2023-09-20T04:42:11.000Z,286.34
2023-09-20T04:44:56.000Z,286.34
2023-09-20T04:46:23.000Z,286.34
2023-09-20T04:48:29.000Z,286.34
2023-09-20T04:49:56.000Z,286.4
2023-09-20T04:52:02.000Z,286.34
2023-09-20T04:53:28.000Z,286.34
2023-09-20T04:55:34.000Z,286.27
2023-09-20T04:57:01.000Z,286.27
2023-09-20T04:59:07.000Z,286.21
2023-09-20T05:00:34.000Z,286.21
2023-09-20T05:02:40.000Z,286.21
2023-09-20T05:04:07.000Z,286.21
2023-09-20T05:06:13.000Z,286.15
2023-09-20T05:07:40.000Z,286.15
2023-09-20T05:09:46.000Z,286.15
2023-09-20T05:11:12.000Z,286.15
2023-09-20T05:13:19.000Z,286.15
2023-09-20T05:14:45.000Z,286.15
2023-09-20T05:16:51.000Z,286.15
2023-09-20T05:18:18.000Z,286.21
2023-09-20T05:20:24.000Z,286.15
2023-09-20T05:23:09.000Z,286.21
2023-09-20T05:24:36.000Z,286.27
2023-09-20T05:26:42.000Z,286.27
2023-09-20T05:28:09.000Z,286.27
2023-09-20T05:30:15.000Z,286.34
2023-09-20T05:31:41.000Z,286.34
2023-09-20T05:33:48.000Z,286.34
2023-09-20T05:35:14.000Z,286.34
2023-09-20T05:37:20.000Z,286.4
2023-09-20T05:38:47.000Z,286.34
2023-09-20T05:40:53.000Z,286.34
2023-09-20T05:42:20.000Z,286.27
2023-09-20T05:44:26.000Z,286.34
2023-09-20T05:45:52.000Z,286.34
2023-09-20T05:47:59.000Z,286.34
2023-09-20T05:49:25.000Z,286.27
2023-09-20T05:51:31.000Z,286.34
2023-09-20T05:52:58.000Z,286.34
2023-09-20T05:55:04.000Z,286.34
2023-09-20T05:56:30.000Z,286.4
2023-09-20T05:58:37.000Z,286.4
2023-09-20T06:01:22.000Z,286.4
2023-09-20T06:02:49.000Z,286.34
2023-09-20T06:04:56.000Z,286.46
2023-09-20T06:06:22.000Z,286.46
2023-09-20T06:08:29.000Z,286.46
2023-09-20T06:09:55.000Z,286.46
2023-09-20T06:12:01.000Z,286.46
2023-09-20T06:13:28.000Z,286.46
2023-09-20T06:15:34.000Z,286.52
2023-09-20T06:17:01.000Z,286.59
2023-09-20T06:19:07.000Z,286.65
2023-09-20T06:20:38.000Z,286.71
2023-09-20T06:22:44.000Z,286.77
2023-09-20T06:24:11.000Z,286.77
2023-09-20T06:26:17.000Z,286.84
2023-09-20T06:27:43.000Z,286.9
2023-09-20T06:29:50.000Z,286.96
2023-09-20T06:31:16.000Z,287.02
2023-09-20T06:33:22.000Z,287.15
2023-09-20T06:34:49.000Z,287.27
2023-09-20T06:37:03.000Z,287.4
2023-09-20T06:39:48.000Z,287.46
2023-09-20T06:41:15.000Z,287.52
2023-09-20T06:43:21.000Z,287.65
2023-09-20T06:44:48.000Z,287.65
2023-09-20T06:46:54.000Z,287.71
2023-09-20T06:48:21.000Z,287.71
2023-09-20T06:50:32.000Z,287.84
2023-09-20T06:51:58.000Z,287.9
2023-09-20T06:54:04.000Z,287.84
2023-09-20T06:55:31.000Z,287.9
2023-09-20T06:57:37.000Z,287.9
2023-09-20T06:59:04.000Z,287.9
2023-09-20T07:01:10.000Z,287.9
2023-09-20T07:02:37.000Z,288.02
2023-09-20T07:04:43.000Z,288.02
2023-09-20T07:06:10.000Z,287.96
2023-09-20T07:08:16.000Z,288.02
2023-09-20T07:09:42.000Z,288.09
2023-09-20T07:11:49.000Z,288.09
2023-09-20T07:13:15.000Z,288.15
2023-09-20T07:15:21.000Z,288.21
2023-09-20T07:18:06.000Z,288.21
2023-09-20T07:19:33.000Z,288.27
2023-09-20T07:21:39.000Z,288.34
2023-09-20T07:23:06.000Z,288.34
2023-09-20T07:25:12.000Z,288.4
2023-09-20T07:26:39.000Z,288.46
2023-09-20T07:28:45.000Z,288.46
2023-09-20T07:30:11.000Z,288.46
2023-09-20T07:32:21.000Z,288.46
2023-09-20T07:33:47.000Z,288.52
2023-09-20T07:35:54.000Z,288.46
2023-09-20T07:37:20.000Z,288.52
2023-09-20T07:39:27.000Z,288.52
2023-09-20T07:40:53.000Z,288.52
2023-09-20T07:43:00.000Z,288.65
2023-09-20T07:44:36.000Z,288.71
2023-09-20T07:46:42.000Z,288.71
2023-09-20T07:48:08.000Z,288.77
2023-09-20T07:50:15.000Z,288.77
2023-09-20T07:51:41.000Z,288.84
2023-09-20T07:53:47.000Z,288.9
2023-09-20T07:56:33.000Z,288.9
2023-09-20T07:57:59.000Z,288.96
2023-09-20T08:00:05.000Z,289.09
2023-09-20T08:01:32.000Z,289.09
2023-09-20T08:03:38.000Z,289.15
2023-09-20T08:05:05.000Z,289.21
2023-09-20T08:07:12.000Z,289.21
2023-09-20T08:08:38.000Z,289.21
2023-09-20T08:10:45.000Z,289.27
2023-09-20T08:12:27.000Z,289.34
2023-09-20T08:14:33.000Z,289.4
2023-09-20T08:15:59.000Z,289.46
2023-09-20T08:18:06.000Z,289.52
2023-09-20T08:19:32.000Z,289.59
2023-09-20T08:21:39.000Z,289.59
2023-09-20T08:23:06.000Z,289.65
2023-09-20T08:25:12.000Z,289.71
2023-09-20T08:26:38.000Z,289.77
2023-09-20T08:28:45.000Z,289.84
2023-09-20T08:30:11.000Z,289.96
2023-09-20T08:32:18.000Z,290.02
2023-09-20T08:35:03.000Z,290.09
2023-09-20T08:36:30.000Z,290.09
2023-09-20T08:38:37.000Z,290.09
2023-09-20T08:40:03.000Z,290.09
2023-09-20T08:42:10.000Z,290.09
2023-09-20T08:43:36.000Z,290.09
2023-09-20T08:45:42.000Z,290.15
2023-09-20T08:47:09.000Z,290.15
2023-09-20T08:49:15.000Z,290.34
2023-09-20T08:50:41.000Z,290.52
2023-09-20T08:52:48.000Z,290.65
2023-09-20T08:54:15.000Z,290.71
2023-09-20T08:56:21.000Z,290.84
2023-09-20T08:57:48.000Z,290.9
2023-09-20T08:59:54.000Z,290.96
2023-09-20T09:01:21.000Z,291.02
2023-09-20T09:03:27.000Z,291.09
2023-09-20T09:04:54.000Z,291.09
2023-09-20T09:07:00.000Z,291.15
2023-09-20T09:08:26.000Z,291.15
2023-09-20T09:10:32.000Z,291.15
2023-09-20T09:13:18.000Z,291.46
2023-09-20T09:14:44.000Z,291.59
2023-09-20T09:16:51.000Z,291.77
2023-09-20T09:18:17.000Z,291.77
2023-09-20T09:20:26.000Z,291.9
2023-09-20T09:21:53.000Z,291.9
2023-09-20T09:23:59.000Z,291.96
2023-09-20T09:25:25.000Z,292.15
2023-09-20T09:27:31.000Z,292.21
2023-09-20T09:28:58.000Z,292.4
2023-09-20T09:31:04.000Z,292.65
2023-09-20T09:32:31.000Z,292.59
2023-09-20T09:34:37.000Z,292.71
2023-09-20T09:36:04.000Z,292.84
2023-09-20T09:38:10.000Z,292.84
2023-09-20T09:39:36.000Z,292.84
2023-09-20T09:41:44.000Z,292.84
2023-09-20T09:43:11.000Z,292.77
2023-09-20T09:45:17.000Z,292.65
2023-09-20T09:46:43.000Z,292.52
2023-09-20T09:48:50.000Z,292.34
2023-09-20T09:51:35.000Z,292.34
2023-09-20T09:53:02.000Z,292.27
2023-09-20T09:55:08.000Z,292.27
2023-09-20T09:56:34.000Z,292.27
2023-09-20T09:58:40.000Z,292.27
2023-09-20T10:00:07.000Z,292.34
2023-09-20T10:02:13.000Z,292.4
2023-09-20T10:03:40.000Z,292.4
2023-09-20T10:05:47.000Z,292.46
2023-09-20T10:07:14.000Z,292.52
2023-09-20T10:09:20.000Z,292.59
2023-09-20T10:10:46.000Z,292.59
2023-09-20T10:12:52.000Z,292.59
2023-09-20T10:14:19.000Z,292.52
2023-09-20T10:16:25.000Z,292.52
2023-09-20T10:17:52.000Z,292.59
2023-09-20T10:19:58.000Z,292.65
2023-09-20T10:21:25.000Z,292.77
2023-09-20T10:23:31.000Z,292.71
2023-09-20T10:24:57.000Z,292.71
2023-09-20T10:27:04.000Z,292.77
2023-09-20T10:29:49.000Z,292.84
2023-09-20T10:31:15.000Z,292.84
2023-09-20T10:33:22.000Z,292.84
2023-09-20T10:34:48.000Z,292.71
2023-09-20T10:36:54.000Z,292.84
2023-09-20T10:38:21.000Z,292.96
2023-09-20T10:40:27.000Z,293.15
2023-09-20T10:41:54.000Z,293.4
2023-09-20T10:44:00.000Z,293.71
2023-09-20T10:45:26.000Z,293.9
2023-09-20T10:47:33.000Z,293.9
2023-09-20T10:49:00.000Z,293.84
2023-09-20T10:51:06.000Z,294.09
2023-09-20T10:52:32.000Z,294.02
2023-09-20T10:54:39.000Z,294.02
2023-09-20T10:56:05.000Z,293.9
2023-09-20T10:58:12.000Z,293.65
2023-09-20T10:59:38.000Z,293.59
2023-09-20T11:01:44.000Z,293.4
2023-09-20T11:03:11.000Z,293.21
2023-09-20T11:05:17.000Z,293.15
2023-09-20T11:08:03.000Z,293.02
2023-09-20T11:09:30.000Z,292.96
2023-09-20T11:11:36.000Z,293.02
2023-09-20T11:13:03.000Z,293.09
2023-09-20T11:15:09.000Z,293.09
2023-09-20T11:16:35.000Z,293.09
2023-09-20T11:18:42.000Z,292.96
2023-09-20T11:20:09.000Z,292.96
2023-09-20T11:22:15.000Z,292.9
2023-09-20T11:23:42.000Z,292.84
2023-09-20T11:25:48.000Z,292.9
2023-09-20T11:27:15.000Z,292.9
2023-09-20T11:29:21.000Z,292.96
2023-09-20T11:30:48.000Z,292.96
2023-09-20T11:32:54.000Z,293.02
2023-09-20T11:34:20.000Z,293.15
2023-09-20T11:36:27.000Z,293.21
2023-09-20T11:37:54.000Z,293.27
2023-09-20T11:40:01.000Z,293.27
2023-09-20T11:41:27.000Z,293.21
2023-09-20T11:43:33.000Z,293.34
2023-09-20T11:46:19.000Z,293.4
2023-09-20T11:47:45.000Z,293.52
2023-09-20T11:49:52.000Z,293.59
2023-09-20T11:51:18.000Z,293.65
2023-09-20T11:53:24.000Z,294.02
2023-09-20T11:54:51.000Z,294.15
2023-09-20T11:56:57.000Z,294.27
2023-09-20T11:58:24.000Z,294.46
2023-09-20T12:00:31.000Z,294.65
2023-09-20T12:01:57.000Z,294.65
2023-09-20T12:04:04.000Z,294.65
2023-09-20T12:05:30.000Z,294.77
2023-09-20T12:07:37.000Z,294.71
2023-09-20T12:09:03.000Z,294.84
2023-09-20T12:11:10.000Z,294.96
2023-09-20T12:12:39.000Z,294.96
2023-09-20T12:14:45.000Z,294.96
2023-09-20T12:16:12.000Z,294.84
2023-09-20T12:18:18.000Z,295.02
2023-09-20T12:19:45.000Z,295.02
2023-09-20T12:21:51.000Z,294.96
2023-09-20T12:24:37.000Z,295.02
2023-09-20T12:26:03.000Z,295.09
2023-09-20T12:28:09.000Z,295.27
2023-09-20T12:29:36.000Z,295.27
2023-09-20T12:31:42.000Z,295.15
2023-09-20T12:33:09.000Z,295.09
2023-09-20T12:35:16.000Z,295.15
2023-09-20T12:36:43.000Z,295.27
2023-09-20T12:38:49.000Z,295.4
2023-09-20T12:40:16.000Z,295.46
2023-09-20T12:42:22.000Z,295.52
2023-09-20T12:43:49.000Z,295.46
2023-09-20T12:45:55.000Z,295.46
2023-09-20T12:47:22.000Z,295.52
2023-09-20T12:49:28.000Z,295.46
2023-09-20T12:50:55.000Z,295.4
2023-09-20T12:53:01.000Z,295.52
2023-09-20T12:54:27.000Z,295.52
2023-09-20T12:56:34.000Z,295.52
2023-09-20T12:58:00.000Z,295.46
2023-09-20T13:00:06.000Z,295.4
2023-09-20T13:02:51.000Z,295.34
2023-09-20T13:04:18.000Z,295.34
2023-09-20T13:06:25.000Z,295.15
2023-09-20T13:07:51.000Z,295.21
2023-09-20T13:09:58.000Z,295.15
2023-09-20T13:11:24.000Z,295.09
2023-09-20T13:13:31.000Z,295.09
2023-09-20T13:14:57.000Z,295.15
2023-09-20T13:17:03.000Z,294.96
2023-09-20T13:18:30.000Z,294.84
2023-09-20T13:20:36.000Z,294.71
2023-09-20T13:22:03.000Z,294.9
2023-09-20T13:24:09.000Z,294.9
2023-09-20T13:25:36.000Z,295.02
2023-09-20T13:27:42.000Z,295.27
2023-09-20T13:29:08.000Z,295.4
2023-09-20T13:31:15.000Z,295.34
2023-09-20T13:32:41.000Z,295.15
2023-09-20T13:34:48.000Z,295.34
2023-09-20T13:36:14.000Z,295.4
2023-09-20T13:38:20.000Z,295.52
2023-09-20T13:41:06.000Z,295.65
2023-09-20T13:42:32.000Z,295.77
2023-09-20T13:44:39.000Z,295.84
2023-09-20T13:46:05.000Z,295.9
2023-09-20T13:48:12.000Z,296.02
2023-09-20T13:49:39.000Z,296.15
2023-09-20T13:51:46.000Z,296.21
2023-09-20T13:53:12.000Z,296.21
2023-09-20T13:55:20.000Z,296.15
2023-09-20T13:56:57.000Z,296.27
2023-09-20T13:59:03.000Z,296.27
2023-09-20T14:00:30.000Z,296.4
2023-09-20T14:02:36.000Z,296.46
2023-09-20T14:04:03.000Z,296.59
2023-09-20T14:06:09.000Z,296.46
2023-09-20T14:07:35.000Z,296.46
2023-09-20T14:09:42.000Z,296.46
2023-09-20T14:11:08.000Z,296.46
2023-09-20T14:13:15.000Z,296.27
2023-09-20T14:14:41.000Z,296.27
2023-09-20T14:16:48.000Z,296.21
2023-09-20T14:19:33.000Z,295.9
2023-09-20T14:21:00.000Z,295.77
2023-09-20T14:23:06.000Z,295.84
2023-09-20T14:24:33.000Z,295.84
2023-09-20T14:26:39.000Z,295.9
2023-09-20T14:28:05.000Z,295.9
2023-09-20T14:30:12.000Z,295.84
2023-09-20T14:31:38.000Z,295.77
2023-09-20T14:33:44.000Z,295.65
2023-09-20T14:35:11.000Z,295.52
2023-09-20T14:37:17.000Z,295.59
2023-09-20T14:38:44.000Z,295.71
2023-09-20T14:40:50.000Z,295.77
2023-09-20T14:42:17.000Z,295.71
2023-09-20T14:44:23.000Z,295.59
2023-09-20T14:45:50.000Z,295.52
2023-09-20T14:47:56.000Z,295.34
2023-09-20T14:49:23.000Z,295.27
2023-09-20T14:51:29.000Z,295.15
2023-09-20T14:52:56.000Z,295.09
2023-09-20T14:55:02.000Z,295.02
2023-09-20T14:57:47.000Z,294.77
2023-09-20T14:59:14.000Z,294.84
2023-09-20T15:01:20.000Z,294.71
2023-09-20T15:02:47.000Z,294.71
2023-09-20T15:04:53.000Z,294.71
2023-09-20T15:06:20.000Z,294.77
2023-09-20T15:08:26.000Z,294.84
2023-09-20T15:09:52.000Z,295.15
2023-09-20T15:11:58.000Z,295.4
2023-09-20T15:13:25.000Z,295.52
2023-09-20T15:15:31.000Z,295.71
2023-09-20T15:16:58.000Z,295.77
2023-09-20T15:19:05.000Z,295.77
2023-09-20T15:20:31.000Z,295.71
2023-09-20T15:22:38.000Z,295.77
2023-09-20T15:24:04.000Z,295.71
2023-09-20T15:26:10.000Z,295.77
2023-09-20T15:27:37.000Z,295.77
2023-09-20T15:29:46.000Z,295.71
2023-09-20T15:31:13.000Z,295.65
2023-09-20T15:33:19.000Z,295.52
2023-09-20T15:36:05.000Z,295.59
2023-09-20T15:37:31.000Z,295.59
2023-09-20T15:39:38.000Z,295.52
2023-09-20T15:41:04.000Z,295.46
2023-09-20T15:43:11.000Z,295.34
2023-09-20T15:44:37.000Z,295.09
2023-09-20T15:46:43.000Z,294.84
2023-09-20T15:48:10.000Z,294.9
2023-09-20T15:50:16.000Z,294.9
2023-09-20T15:51:43.000Z,295.09
2023-09-20T15:53:50.000Z,295.27
2023-09-20T15:55:16.000Z,295.21
2023-09-20T15:57:23.000Z,295.27
2023-09-20T15:58:49.000Z,295.4
2023-09-20T16:00:55.000Z,295.34
2023-09-20T16:02:22.000Z,295.34
2023-09-20T16:04:28.000Z,295.27
2023-09-20T16:05:55.000Z,295.27
2023-09-20T16:08:01.000Z,295.21
2023-09-20T16:09:28.000Z,295.15
2023-09-20T16:11:34.000Z,295.15
2023-09-20T16:14:19.000Z,295.21
2023-09-20T16:15:46.000Z,295.21
2023-09-20T16:17:52.000Z,295.21
2023-09-20T16:19:19.000Z,295.09
2023-09-20T16:21:26.000Z,295.15
2023-09-20T16:22:52.000Z,295.21
2023-09-20T16:24:59.000Z,295.09
2023-09-20T16:26:26.000Z,295.09
2023-09-20T16:28:33.000Z,294.96
2023-09-20T16:29:59.000Z,294.84
2023-09-20T16:32:06.000Z,294.71
2023-09-20T16:33:32.000Z,294.59
2023-09-20T16:35:39.000Z,294.46
2023-09-20T16:37:05.000Z,294.46
2023-09-20T16:39:12.000Z,294.27
2023-09-20T16:40:38.000Z,294.09
2023-09-20T16:42:44.000Z,293.84
2023-09-20T16:44:11.000Z,293.71
2023-09-20T16:46:17.000Z,293.59
2023-09-20T16:47:43.000Z,293.46
2023-09-20T16:49:50.000Z,293.27
2023-09-20T16:52:35.000Z,293.15
2023-09-20T16:54:03.000Z,293.09
2023-09-20T16:56:09.000Z,292.96
2023-09-20T16:57:36.000Z,293.02
2023-09-20T16:59:42.000Z,292.96
2023-09-20T17:01:09.000Z,292.84
2023-09-20T17:03:15.000Z,292.65
2023-09-20T17:04:42.000Z,292.59
2023-09-20T17:06:48.000Z,292.52
2023-09-20T17:08:15.000Z,292.4
2023-09-20T17:10:21.000Z,292.21
2023-09-20T17:11:48.000Z,292.21
2023-09-20T17:13:54.000Z,292.09
2023-09-20T17:15:21.000Z,291.9
2023-09-20T17:17:27.000Z,291.84
2023-09-20T17:18:54.000Z,291.71
2023-09-20T17:21:04.000Z,291.71
2023-09-20T17:22:30.000Z,291.71
2023-09-20T17:24:37.000Z,291.71
2023-09-20T17:26:03.000Z,291.59
2023-09-20T17:28:12.000Z,291.52
2023-09-20T17:30:57.000Z,291.34
2023-09-20T17:32:24.000Z,291.27
2023-09-20T17:34:30.000Z,291.15
2023-09-20T17:35:57.000Z,291.15
2023-09-20T17:38:03.000Z,291.15
2023-09-20T17:39:30.000Z,291.02
2023-09-20T17:41:36.000Z,290.9
2023-09-20T17:43:03.000Z,290.84
2023-09-20T17:45:09.000Z,290.84
2023-09-20T17:46:35.000Z,290.77
2023-09-20T17:48:42.000Z,290.71
2023-09-20T17:50:08.000Z,290.71
2023-09-20T17:52:14.000Z,290.65
2023-09-20T17:53:41.000Z,290.52
2023-09-20T17:55:48.000Z,290.52
2023-09-20T17:57:14.000Z,290.46
2023-09-20T17:59:20.000Z,290.4
2023-09-20T18:00:47.000Z,290.4
2023-09-20T18:02:53.000Z,290.34
2023-09-20T18:04:20.000Z,290.27
2023-09-20T18:06:27.000Z,290.15
2023-09-20T18:09:12.000Z,290.02
2023-09-20T18:10:39.000Z,289.9
2023-09-20T18:12:45.000Z,289.84
2023-09-20T18:14:12.000Z,289.71
2023-09-20T18:16:18.000Z,289.65
2023-09-20T18:17:45.000Z,289.65
2023-09-20T18:19:51.000Z,289.65
2023-09-20T18:21:18.000Z,289.59
2023-09-20T18:23:24.000Z,289.46
2023-09-20T18:24:50.000Z,289.4
2023-09-20T18:26:57.000Z,289.27
2023-09-20T18:28:23.000Z,289.21
2023-09-20T18:30:30.000Z,289.21
2023-09-20T18:31:56.000Z,289.21
2023-09-20T18:34:02.000Z,289.02
2023-09-20T18:35:29.000Z,289.09
2023-09-20T18:37:36.000Z,289.27
2023-09-20T18:39:02.000Z,289.27
2023-09-20T18:41:09.000Z,289.15
2023-09-20T18:42:35.000Z,289.09
2023-09-20T18:44:42.000Z,288.77
2023-09-20T18:47:27.000Z,288.71
2023-09-20T18:49:08.000Z,288.77
2023-09-20T18:51:14.000Z,288.84
2023-09-20T18:52:41.000Z,288.77
2023-09-20T18:54:47.000Z,288.65
2023-09-20T18:56:14.000Z,288.59
2023-09-20T18:58:20.000Z,288.46
2023-09-20T18:59:46.000Z,288.34
2023-09-20T19:01:53.000Z,288.15
2023-09-20T19:03:19.000Z,288.09
2023-09-20T19:05:26.000Z,288.02
2023-09-20T19:06:52.000Z,287.9
2023-09-20T19:08:59.000Z,287.96
2023-09-20T19:10:25.000Z,287.96
2023-09-20T19:12:31.000Z,287.9
2023-09-20T19:13:58.000Z,287.9
2023-09-20T19:16:04.000Z,287.84
2023-09-20T19:17:31.000Z,287.77
2023-09-20T19:19:38.000Z,287.77
2023-09-20T19:21:04.000Z,287.77
2023-09-20T19:23:10.000Z,287.71
2023-09-20T19:25:56.000Z,287.65
2023-09-20T19:27:22.000Z,287.59
2023-09-20T19:29:28.000Z,287.52
2023-09-20T19:30:55.000Z,287.59
2023-09-20T19:33:01.000Z,287.46
2023-09-20T19:34:28.000Z,287.4
2023-09-20T19:36:34.000Z,287.34
2023-09-20T19:38:01.000Z,287.34
2023-09-20T19:40:07.000Z,287.27
2023-09-20T19:41:34.000Z,287.27
2023-09-20T19:43:40.000Z,287.4
2023-09-20T19:45:07.000Z,287.34
2023-09-20T19:47:13.000Z,287.15
2023-09-20T19:48:39.000Z,287.09
2023-09-20T19:50:46.000Z,287.09
2023-09-20T19:52:13.000Z,287.02
2023-09-20T19:54:19.000Z,287.02
2023-09-20T19:55:46.000Z,287.09
2023-09-20T19:57:52.000Z,286.84
2023-09-20T19:59:19.000Z,286.84
2023-09-20T20:01:25.000Z,286.84
2023-09-20T20:04:11.000Z,286.9
2023-09-20T20:05:38.000Z,286.77
2023-09-20T20:07:44.000Z,286.77
2023-09-20T20:09:10.000Z,286.84
2023-09-20T20:11:17.000Z,286.71
2023-09-20T20:12:43.000Z,286.65
2023-09-20T20:14:49.000Z,286.52
2023-09-20T20:16:16.000Z,286.59
2023-09-20T20:18:22.000Z,286.46
2023-09-20T20:19:49.000Z,286.4
2023-09-20T20:21:56.000Z,286.27
2023-09-20T20:23:22.000Z,286.34
2023-09-20T20:25:28.000Z,286.27
2023-09-20T20:26:55.000Z,286.27
2023-09-20T20:29:01.000Z,286.21
2023-09-20T20:30:28.000Z,286.21
2023-09-20T20:32:35.000Z,286.15
2023-09-20T20:34:02.000Z,286.15
2023-09-20T20:36:08.000Z,286.21
2023-09-20T20:37:35.000Z,286.15
2023-09-20T20:39:41.000Z,286.09
2023-09-20T20:42:27.000Z,285.96
2023-09-20T20:43:53.000Z,285.9
2023-09-20T20:45:59.000Z,285.9
2023-09-20T20:47:26.000Z,285.9
2023-09-20T20:49:32.000Z,285.9
2023-09-20T20:50:59.000Z,285.9
2023-09-20T20:53:05.000Z,285.96
2023-09-20T20:54:32.000Z,285.96
2023-09-20T20:56:38.000Z,285.96
2023-09-20T20:58:05.000Z,285.84
2023-09-20T21:00:11.000Z,285.77
2023-09-20T21:01:38.000Z,285.77
2023-09-20T21:03:44.000Z,285.71
2023-09-20T21:05:11.000Z,285.71
2023-09-20T21:07:17.000Z,285.59
2023-09-20T21:08:44.000Z,285.52
2023-09-20T21:10:50.000Z,285.52
2023-09-20T21:12:17.000Z,285.59
2023-09-20T21:14:23.000Z,285.65
2023-09-20T21:15:50.000Z,285.65
2023-09-20T21:17:56.000Z,285.77
2023-09-20T21:20:42.000Z,285.65
2023-09-20T21:22:09.000Z,285.59
2023-09-20T21:24:15.000Z,285.52
2023-09-20T21:25:42.000Z,285.52
2023-09-20T21:27:49.000Z,285.46
2023-09-20T21:29:15.000Z,285.46
2023-09-20T21:31:21.000Z,285.4
2023-09-20T21:32:48.000Z,285.4
2023-09-20T21:34:54.000Z,285.34
2023-09-20T21:36:21.000Z,285.27
2023-09-20T21:38:27.000Z,285.34
2023-09-20T21:39:54.000Z,285.34
2023-09-20T21:42:00.000Z,285.27
2023-09-20T21:43:26.000Z,285.21
2023-09-20T21:45:33.000Z,285.15
2023-09-20T21:46:59.000Z,285.09
2023-09-20T21:49:05.000Z,285.09
2023-09-20T21:50:32.000Z,285.09
2023-09-20T21:52:38.000Z,285.15
2023-09-20T21:54:05.000Z,285.15
2023-09-20T21:56:11.000Z,285.21
2023-09-20T21:58:56.000Z,285.15
2023-09-20T22:00:23.000Z,285.21
2023-09-20T22:02:29.000Z,285.52
2023-09-20T22:03:56.000Z,285.52
2023-09-20T22:06:02.000Z,285.27
2023-09-20T22:07:29.000Z,285.09
2023-09-20T22:09:35.000Z,285.09
2023-09-20T22:11:01.000Z,285.15
2023-09-20T22:13:08.000Z,285.15
2023-09-20T22:14:35.000Z,285.15
2023-09-20T22:16:41.000Z,285.15
2023-09-20T22:18:08.000Z,285.09
2023-09-20T22:20:14.000Z,284.96
2023-09-20T22:21:40.000Z,284.9
2023-09-20T22:23:46.000Z,284.84
2023-09-20T22:25:13.000Z,284.84
2023-09-20T22:27:19.000Z,284.77
2023-09-20T22:28:46.000Z,284.77
2023-09-20T22:30:52.000Z,284.84
2023-09-20T22:32:18.000Z,284.9
2023-09-20T22:34:25.000Z,284.9
2023-09-20T22:37:10.000Z,284.96
2023-09-20T22:38:36.000Z,284.96
2023-09-20T22:40:43.000Z,284.9
2023-09-20T22:42:09.000Z,284.9
2023-09-20T22:44:16.000Z,284.77
2023-09-20T22:45:42.000Z,284.71
2023-09-20T22:47:49.000Z,284.65
2023-09-20T22:49:15.000Z,284.59